Frisia Inn — A8NR9 — position and weather

sailwx.info

Track history (hours):
 
Tides and Currents Weather Stations Pressure Air Temp Water Temp Dewpoint Dewpoint Depression Visibility Wind Speed Wind Dir Waves Ship Positions

Frisia Inn

Last reported at 2017-Nov-12 06:33 UTC. Time now 2017-Nov-18 14:28 UTC.
Position N 25°15' W 079°56'.

Length 148 m; draft 8 m.

Type: Ship. MMSI: 636091437.

Date/timePositionNaut miles runAvg speedWind from/ knotsBaromVisibWave heightAir tempDewpointWater temp
2017-Nov-12 06:33N 25°15' W 079°56'114.0
2017-Nov-12 06:30N 25°16' W 079°56'713.7
2017-Nov-12 06:00N 25°22' W 079°58'713.3
2017-Nov-12 05:30N 25°29' W 079°56'713.2
2017-Nov-12 05:00N 25°35' W 079°56'612.9
2017-Nov-12 04:30N 25°41' W 079°59'612.9
2017-Nov-12 04:00N 25°46' W 080°04'4 9.0
2017-Nov-12 03:31N 25°46' W 080°09'1 1.7
2017-Nov-12 03:00N 25°46' W 080°10'0 0.0
2017-Nov-12 02:30N 25°46' W 080°10'0 0.0
2017-Nov-12 02:00N 25°46' W 080°10'0 0.0
2017-Nov-12 01:30N 25°46' W 080°10'0 0.0
2017-Nov-12 01:00N 25°46' W 080°10'0 0.0
2017-Nov-12 00:29N 25°46' W 080°10'0 0.0
2017-Nov-11 23:59N 25°46' W 080°10'0 0.0
2017-Nov-11 23:26N 25°46' W 080°10'0 0.0
2017-Nov-11 22:59N 25°46' W 080°10'0 0.0
2017-Nov-11 22:28N 25°46' W 080°10'0 0.0
2017-Nov-11 21:58N 25°46' W 080°10'0 0.0
2017-Nov-11 21:28N 25°46' W 080°10'0 0.0
2017-Nov-11 20:58N 25°46' W 080°10'0 0.0
2017-Nov-11 20:28N 25°46' W 080°10'0 0.0
2017-Nov-11 20:00N 25°46' W 080°10'0 0.0
2017-Nov-11 19:30N 25°46' W 080°10'0 0.0
2017-Nov-11 19:00N 25°46' W 080°10'0 0.0
2017-Nov-11 18:30N 25°46' W 080°10'0 0.0
2017-Nov-11 17:59N 25°46' W 080°10'0 0.0
2017-Nov-11 17:29N 25°46' W 080°10'0 0.0
2017-Nov-11 16:59N 25°46' W 080°10'0 0.0
2017-Nov-11 16:29N 25°46' W 080°10'0 0.0
2017-Nov-11 15:57N 25°46' W 080°10'0 0.1
2017-Nov-11 15:30N 25°46' W 080°10'0 0.0
2017-Nov-11 14:59N 25°46' W 080°10'0 0.0
2017-Nov-11 14:29N 25°46' W 080°10'0 0.0
2017-Nov-11 13:59N 25°46' W 080°10'0 0.5
2017-Nov-11 13:30N 25°46' W 080°10'4 8.3
2017-Nov-11 13:01N 25°46' W 080°05'612.0
2017-Nov-11 12:31N 25°43' W 079°59'918.0
2017-Nov-11 12:00N 25°35' W 079°55'918.1
2017-Nov-11 11:30N 25°26' W 079°56'918.1
2017-Nov-11 11:00N 25°17' W 079°57'5018.0
2017-Nov-11 08:12N 24°35' W 080°27'418.3
2017-Nov-11 08:00N 24°32' W 080°30'918.2
2017-Nov-11 07:29N 24°24' W 080°36'918.1
2017-Nov-11 06:59N 24°18' W 080°43'  
2017-Nov-04 02:13N 25°17' W 079°59'314.9
2017-Nov-04 02:00N 25°20' W 079°59'714.5
2017-Nov-04 01:30N 25°27' W 079°58'714.4
2017-Nov-04 01:01N 25°35' W 079°58'714.3
2017-Nov-04 00:31N 25°42' W 079°59'612.4
2017-Nov-04 00:00N 25°46' W 080°04'4 8.6
2017-Nov-03 23:30N 25°46' W 080°09'0 0.0
2017-Nov-03 22:59N 25°46' W 080°09'0 0.0
2017-Nov-03 22:29N 25°46' W 080°09'0 0.0
2017-Nov-03 21:58N 25°46' W 080°09'0 0.0
2017-Nov-03 21:28N 25°46' W 080°09'0 0.0
2017-Nov-03 20:58N 25°46' W 080°09'0 0.0
2017-Nov-03 20:28N 25°46' W 080°09'0 0.1
2017-Nov-03 19:55N 25°46' W 080°09'0 0.0
2017-Nov-03 19:30N 25°46' W 080°09'0 0.0
2017-Nov-03 19:00N 25°46' W 080°09'0 0.0
2017-Nov-03 18:30N 25°46' W 080°09'0 0.0
2017-Nov-03 17:58N 25°46' W 080°09'0 0.1
2017-Nov-03 17:29N 25°46' W 080°09'0 0.0
2017-Nov-03 16:56N 25°46' W 080°09'0 0.0
2017-Nov-03 16:28N 25°46' W 080°09'0 0.0
2017-Nov-03 15:58N 25°46' W 080°09'0 0.0
2017-Nov-03 15:28N 25°46' W 080°09'0 0.0
2017-Nov-03 14:58N 25°46' W 080°09'0 0.0
2017-Nov-03 14:31N 25°46' W 080°09'0 0.0
2017-Nov-03 14:00N 25°46' W 080°09'0 0.0
2017-Nov-03 13:30N 25°46' W 080°09'0 0.0
2017-Nov-03 13:00N 25°46' W 080°09'0 0.0
2017-Nov-03 12:30N 25°46' W 080°09'0 0.0
2017-Nov-03 11:59N 25°46' W 080°09'0 0.0
2017-Nov-03 11:29N 25°46' W 080°09'0 0.0
2017-Nov-03 10:59N 25°46' W 080°09'0 0.0
2017-Nov-03 10:31N 25°46' W 080°09'1 1.4
2017-Nov-03 10:00N 25°46' W 080°10'2 3.9
2017-Nov-03 09:30N 25°46' W 080°08'611.1
2017-Nov-03 09:01N 25°46' W 080°02'612.6
2017-Nov-03 08:30N 25°46' W 079°54'917.6
2017-Nov-03 08:00N 25°46' W 079°45'918.0
2017-Nov-03 07:30N 25°37' W 079°41'1019.8
2017-Nov-03 07:00N 25°27' W 079°39'  
Track history (hours):
 
Tides and Currents Weather Stations Pressure Air Temp Water Temp Dewpoint Dewpoint Depression Visibility Wind Speed Wind Dir Waves Ship Positions

Frisia Inn

Last reported at 2017-Nov-12 06:33 UTC. Time now 2017-Nov-18 14:28 UTC.
Position N 25°15' W 079°56'.

Length 148 m; draft 8 m.

Type: Ship. MMSI: 636091437.

Date/timePositionNaut miles runAvg speedWind from/ knotsBaromVisibWave heightAir tempDewpointWater temp
2017-Nov-12 06:33N 25°15' W 079°56'114.0
2017-Nov-12 06:30N 25°16' W 079°56'713.7
2017-Nov-12 06:00N 25°22' W 079°58'713.3
2017-Nov-12 05:30N 25°29' W 079°56'713.2
2017-Nov-12 05:00N 25°35' W 079°56'612.9
2017-Nov-12 04:30N 25°41' W 079°59'612.9
2017-Nov-12 04:00N 25°46' W 080°04'4 9.0
2017-Nov-12 03:31N 25°46' W 080°09'1 1.7
2017-Nov-12 03:00N 25°46' W 080°10'0 0.0
2017-Nov-12 02:30N 25°46' W 080°10'0 0.0
2017-Nov-12 02:00N 25°46' W 080°10'0 0.0
2017-Nov-12 01:30N 25°46' W 080°10'0 0.0
2017-Nov-12 01:00N 25°46' W 080°10'0 0.0
2017-Nov-12 00:29N 25°46' W 080°10'0 0.0
2017-Nov-11 23:59N 25°46' W 080°10'0 0.0
2017-Nov-11 23:26N 25°46' W 080°10'0 0.0
2017-Nov-11 22:59N 25°46' W 080°10'0 0.0
2017-Nov-11 22:28N 25°46' W 080°10'0 0.0
2017-Nov-11 21:58N 25°46' W 080°10'0 0.0
2017-Nov-11 21:28N 25°46' W 080°10'0 0.0
2017-Nov-11 20:58N 25°46' W 080°10'0 0.0
2017-Nov-11 20:28N 25°46' W 080°10'0 0.0
2017-Nov-11 20:00N 25°46' W 080°10'0 0.0
2017-Nov-11 19:30N 25°46' W 080°10'0 0.0
2017-Nov-11 19:00N 25°46' W 080°10'0 0.0
2017-Nov-11 18:30N 25°46' W 080°10'0 0.0
2017-Nov-11 17:59N 25°46' W 080°10'0 0.0
2017-Nov-11 17:29N 25°46' W 080°10'0 0.0
2017-Nov-11 16:59N 25°46' W 080°10'0 0.0
2017-Nov-11 16:29N 25°46' W 080°10'0 0.0
2017-Nov-11 15:57N 25°46' W 080°10'0 0.1
2017-Nov-11 15:30N 25°46' W 080°10'0 0.0
2017-Nov-11 14:59N 25°46' W 080°10'0 0.0
2017-Nov-11 14:29N 25°46' W 080°10'0 0.0
2017-Nov-11 13:59N 25°46' W 080°10'0 0.5
2017-Nov-11 13:30N 25°46' W 080°10'4 8.3
2017-Nov-11 13:01N 25°46' W 080°05'612.0
2017-Nov-11 12:31N 25°43' W 079°59'918.0
2017-Nov-11 12:00N 25°35' W 079°55'918.1
2017-Nov-11 11:30N 25°26' W 079°56'918.1
2017-Nov-11 11:00N 25°17' W 079°57'5018.0
2017-Nov-11 08:12N 24°35' W 080°27'418.3
2017-Nov-11 08:00N 24°32' W 080°30'918.2
2017-Nov-11 07:29N 24°24' W 080°36'918.1
2017-Nov-11 06:59N 24°18' W 080°43'  
2017-Nov-04 02:13N 25°17' W 079°59'314.9
2017-Nov-04 02:00N 25°20' W 079°59'714.5
2017-Nov-04 01:30N 25°27' W 079°58'714.4
2017-Nov-04 01:01N 25°35' W 079°58'714.3
2017-Nov-04 00:31N 25°42' W 079°59'612.4
2017-Nov-04 00:00N 25°46' W 080°04'4 8.6
2017-Nov-03 23:30N 25°46' W 080°09'0 0.0
2017-Nov-03 22:59N 25°46' W 080°09'0 0.0
2017-Nov-03 22:29N 25°46' W 080°09'0 0.0
2017-Nov-03 21:58N 25°46' W 080°09'0 0.0
2017-Nov-03 21:28N 25°46' W 080°09'0 0.0
2017-Nov-03 20:58N 25°46' W 080°09'0 0.0
2017-Nov-03 20:28N 25°46' W 080°09'0 0.1
2017-Nov-03 19:55N 25°46' W 080°09'0 0.0
2017-Nov-03 19:30N 25°46' W 080°09'0 0.0
2017-Nov-03 19:00N 25°46' W 080°09'0 0.0
2017-Nov-03 18:30N 25°46' W 080°09'0 0.0
2017-Nov-03 17:58N 25°46' W 080°09'0 0.1
2017-Nov-03 17:29N 25°46' W 080°09'0 0.0
2017-Nov-03 16:56N 25°46' W 080°09'0 0.0
2017-Nov-03 16:28N 25°46' W 080°09'0 0.0
2017-Nov-03 15:58N 25°46' W 080°09'0 0.0
2017-Nov-03 15:28N 25°46' W 080°09'0 0.0
2017-Nov-03 14:58N 25°46' W 080°09'0 0.0
2017-Nov-03 14:31N 25°46' W 080°09'0 0.0
2017-Nov-03 14:00N 25°46' W 080°09'0 0.0
2017-Nov-03 13:30N 25°46' W 080°09'0 0.0
2017-Nov-03 13:00N 25°46' W 080°09'0 0.0
2017-Nov-03 12:30N 25°46' W 080°09'0 0.0
2017-Nov-03 11:59N 25°46' W 080°09'0 0.0
2017-Nov-03 11:29N 25°46' W 080°09'0 0.0
2017-Nov-03 10:59N 25°46' W 080°09'0 0.0
2017-Nov-03 10:31N 25°46' W 080°09'1 1.4
2017-Nov-03 10:00N 25°46' W 080°10'2 3.9
2017-Nov-03 09:30N 25°46' W 080°08'611.1
2017-Nov-03 09:01N 25°46' W 080°02'612.6
2017-Nov-03 08:30N 25°46' W 079°54'917.6
2017-Nov-03 08:00N 25°46' W 079°45'918.0
2017-Nov-03 07:30N 25°37' W 079°41'1019.8
2017-Nov-03 07:00N 25°27' W 079°39'  

Dump ship's entire track history